createdAt,value
2019-02-05T00:00:22.975Z,65.03
2019-02-05T00:02:51.602Z,65.03
2019-02-05T00:05:20.026Z,65.46
2019-02-05T00:07:48.416Z,66.01
2019-02-05T00:10:16.927Z,66.31
2019-02-05T00:12:45.329Z,67.04
2019-02-05T00:15:13.768Z,67.26
2019-02-05T00:17:42.185Z,67.82
2019-02-05T00:20:11.022Z,67.44
2019-02-05T00:22:39.423Z,67.29
2019-02-05T00:25:07.845Z,66.64
2019-02-05T00:27:36.287Z,66.10
2019-02-05T00:30:07.485Z,65.66
2019-02-05T00:32:35.948Z,66.45
2019-02-05T00:35:06.101Z,66.43
2019-02-05T00:37:34.538Z,66.35
2019-02-05T00:40:03.370Z,66.39
2019-02-05T00:42:31.837Z,65.33
2019-02-05T00:45:00.303Z,64.98
2019-02-05T00:47:28.684Z,65.46
2019-02-05T00:49:57.362Z,65.03
2019-02-05T00:52:25.789Z,65.95
2019-02-05T00:54:54.207Z,65.46
2019-02-05T00:57:22.640Z,64.82
2019-02-05T00:59:51.100Z,65.25
2019-02-05T01:02:19.737Z,66.07
2019-02-05T01:04:48.173Z,64.64
2019-02-05T01:07:16.724Z,66.16
2019-02-05T01:09:45.153Z,65.40
2019-02-05T01:12:13.695Z,67.02
2019-02-05T01:14:42.119Z,67.72
2019-02-05T01:17:10.579Z,67.78
2019-02-05T01:19:38.985Z,66.80
2019-02-05T01:22:07.681Z,65.60
2019-02-05T01:24:36.077Z,66.54
2019-02-05T01:27:04.602Z,66.87
2019-02-05T01:29:33.049Z,66.54
2019-02-05T01:32:01.501Z,66.28
2019-02-05T01:34:29.899Z,66.17
2019-02-05T01:36:58.474Z,65.87
2019-02-05T01:39:26.892Z,66.49
2019-02-05T01:41:55.350Z,67.00
2019-02-05T01:44:23.746Z,67.17
2019-02-05T01:46:52.194Z,67.66
2019-02-05T01:49:20.607Z,67.45
2019-02-05T01:51:49.033Z,67.17
2019-02-05T01:54:17.489Z,67.31
2019-02-05T01:56:45.927Z,67.20
2019-02-05T01:59:14.378Z,69.33
2019-02-05T02:01:42.778Z,68.22
2019-02-05T02:04:11.266Z,66.86
2019-02-05T02:06:39.765Z,67.60
2019-02-05T02:09:09.059Z,67.03
2019-02-05T02:11:37.495Z,67.52
2019-02-05T02:14:06.049Z,67.82
2019-02-05T02:16:34.509Z,68.21
2019-02-05T02:19:03.206Z,67.21
2019-02-05T02:21:31.637Z,67.51
2019-02-05T02:24:00.037Z,68.18
2019-02-05T02:26:28.467Z,67.67
2019-02-05T02:28:57.057Z,68.66
2019-02-05T02:31:25.634Z,69.32
2019-02-05T02:33:54.041Z,69.60
2019-02-05T02:36:22.565Z,69.33
2019-02-05T02:38:50.984Z,69.35
2019-02-05T02:41:19.757Z,67.23
2019-02-05T02:43:48.219Z,69.08
2019-02-05T02:46:16.816Z,68.68
2019-02-05T02:48:45.259Z,68.17
2019-02-05T02:51:13.691Z,68.54
2019-02-05T02:53:42.146Z,69.17
2019-02-05T02:56:10.668Z,69.81
2019-02-05T02:58:39.125Z,68.93
2019-02-05T03:01:07.592Z,70.49
2019-02-05T03:03:35.998Z,71.54
2019-02-05T03:06:04.702Z,71.89
2019-02-05T03:08:33.122Z,71.10
2019-02-05T03:11:01.601Z,69.73
2019-02-05T03:13:30.063Z,71.50
2019-02-05T03:15:58.550Z,71.56
2019-02-05T03:18:27.082Z,69.78
2019-02-05T03:20:55.643Z,70.98
2019-02-05T03:23:24.047Z,69.61
2019-02-05T03:25:52.627Z,69.79
2019-02-05T03:28:21.067Z,71.15
2019-02-05T03:30:49.493Z,72.19
2019-02-05T03:33:19.613Z,72.36
2019-02-05T03:35:48.081Z,72.30
2019-02-05T03:38:16.485Z,71.87
2019-02-05T03:40:50.568Z,72.74
2019-02-05T03:43:18.999Z,73.10
2019-02-05T03:45:47.420Z,73.45
2019-02-05T03:48:17.093Z,73.92
2019-02-05T03:50:51.719Z,73.37
2019-02-05T03:53:39.827Z,73.17
2019-02-05T03:56:14.089Z,73.06
2019-02-05T03:59:10.226Z,72.68
2019-02-05T04:02:15.718Z,73.24
2019-02-05T04:05:05.051Z,73.43
2019-02-05T04:07:42.431Z,73.40
2019-02-05T04:10:25.788Z,73.40
2019-02-05T04:13:18.381Z,72.47
2019-02-05T04:15:55.366Z,72.47
2019-02-05T04:18:38.981Z,70.72
2019-02-05T04:21:31.435Z,70.72
2019-02-05T04:24:20.613Z,69.33
2019-02-05T04:27:11.663Z,69.33
2019-02-05T04:30:01.043Z,70.94
2019-02-05T04:32:44.465Z,70.21
2019-02-05T04:35:27.827Z,71.10
2019-02-05T04:38:23.461Z,71.36
2019-02-05T04:41:14.190Z,72.14
2019-02-05T04:43:45.682Z,71.07
2019-02-05T04:46:35.301Z,71.75
2019-02-05T04:49:15.576Z,71.21
2019-02-05T04:51:47.227Z,71.25
2019-02-05T04:54:18.777Z,71.79
2019-02-05T04:57:05.282Z,72.88
2019-02-05T04:59:59.490Z,72.93
2019-02-05T05:02:52.200Z,71.67
2019-02-05T05:05:49.226Z,71.67
2019-02-05T05:08:38.932Z,72.08
2019-02-05T05:11:07.446Z,70.81
2019-02-05T05:13:36.028Z,71.47
2019-02-05T05:16:04.777Z,71.81
2019-02-05T05:18:34.207Z,72.72
2019-02-05T05:21:03.189Z,72.61
2019-02-05T05:23:32.388Z,71.61
2019-02-05T05:26:01.099Z,72.11
2019-02-05T05:28:29.658Z,73.00
2019-02-05T05:30:58.354Z,72.65
2019-02-05T05:33:26.777Z,72.65
2019-02-05T05:35:55.259Z,72.61
2019-02-05T05:38:23.800Z,71.09
2019-02-05T05:40:52.240Z,71.63
2019-02-05T05:43:20.695Z,73.05
2019-02-05T05:45:49.098Z,73.63
2019-02-05T05:48:17.560Z,72.58
2019-02-05T05:50:45.962Z,72.56
2019-02-05T05:53:14.385Z,73.26
2019-02-05T05:55:42.821Z,73.09
2019-02-05T05:58:22.381Z,74.49
2019-02-05T06:00:41.459Z,73.82
2019-02-05T06:03:10.245Z,73.54
2019-02-05T06:05:38.714Z,72.57
2019-02-05T06:08:07.145Z,73.96
2019-02-05T06:10:35.686Z,73.84
2019-02-05T06:13:04.444Z,74.32
2019-02-05T06:15:35.746Z,74.26
2019-02-05T06:18:03.198Z,73.00
2019-02-05T06:20:33.397Z,73.03
2019-02-05T06:23:01.865Z,73.00
2019-02-05T06:25:30.344Z,72.84
2019-02-05T06:27:58.893Z,72.84
2019-02-05T06:30:27.307Z,73.29
2019-02-05T06:32:55.754Z,74.29
2019-02-05T06:35:24.233Z,73.39
2019-02-05T06:37:53.005Z,75.60
2019-02-05T06:40:22.167Z,74.29
2019-02-05T06:42:50.575Z,73.20
2019-02-05T06:45:19.018Z,73.20
2019-02-05T06:47:47.621Z,73.49
2019-02-05T06:50:16.200Z,73.63
2019-02-05T06:52:44.639Z,73.00
2019-02-05T06:55:15.041Z,73.00
2019-02-05T06:57:43.720Z,73.74
2019-02-05T07:00:15.233Z,74.22
2019-02-05T07:02:43.707Z,74.05
2019-02-05T07:05:12.673Z,74.91
2019-02-05T07:07:41.191Z,75.01
2019-02-05T07:10:13.421Z,74.09
2019-02-05T07:12:41.835Z,74.87
2019-02-05T07:15:10.920Z,74.71
2019-02-05T07:17:49.309Z,74.60
2019-02-05T07:20:17.125Z,73.56
2019-02-05T07:22:45.631Z,73.86
2019-02-05T07:25:21.914Z,73.28
2019-02-05T07:27:50.712Z,72.55
2019-02-05T07:30:21.465Z,72.55
2019-02-05T07:32:49.878Z,72.87
2019-02-05T07:35:18.461Z,72.89
2019-02-05T07:37:47.137Z,72.24
2019-02-05T07:40:18.666Z,73.63
2019-02-05T07:42:48.835Z,73.75
2019-02-05T07:45:23.739Z,72.09
2019-02-05T07:47:52.421Z,73.71
2019-02-05T07:50:23.977Z,73.71
2019-02-05T07:52:52.411Z,71.80
2019-02-05T07:55:21.022Z,72.90
2019-02-05T07:57:49.613Z,73.40
2019-02-05T08:00:20.724Z,72.29
2019-02-05T08:02:49.388Z,72.52
2019-02-05T08:05:20.231Z,71.71
2019-02-05T08:07:49.615Z,72.21
2019-02-05T08:10:20.294Z,72.92
2019-02-05T08:12:49.223Z,71.22
2019-02-05T08:15:34.589Z,69.86
2019-02-05T08:18:03.070Z,69.85
2019-02-05T08:20:31.761Z,70.65
2019-02-05T08:23:00.343Z,70.32
2019-02-05T08:25:28.763Z,70.97
2019-02-05T08:27:57.382Z,71.03
2019-02-05T08:30:31.403Z,70.28
2019-02-05T08:33:00.015Z,72.33
2019-02-05T08:35:28.720Z,72.32
2019-02-05T08:37:57.130Z,71.72
2019-02-05T08:40:25.655Z,70.76
2019-02-05T08:42:54.204Z,69.48
2019-02-05T08:45:29.072Z,69.12
2019-02-05T08:47:57.475Z,68.82
2019-02-05T08:50:27.861Z,69.03
2019-02-05T08:52:56.276Z,69.80
2019-02-05T08:55:24.734Z,69.11
2019-02-05T08:58:01.651Z,70.11
2019-02-05T09:00:33.065Z,70.34
2019-02-05T09:03:01.760Z,68.65
2019-02-05T09:05:30.162Z,69.71
2019-02-05T09:07:58.777Z,69.02
2019-02-05T09:10:29.749Z,70.30
2019-02-05T09:12:58.234Z,69.12
2019-02-05T09:15:29.603Z,67.89
2019-02-05T09:17:57.616Z,68.12
2019-02-05T09:20:26.152Z,69.16
2019-02-05T09:22:54.954Z,68.62
2019-02-05T09:25:23.786Z,67.89
2019-02-05T09:27:52.204Z,67.64
2019-02-05T09:30:22.682Z,69.43
2019-02-05T09:32:53.337Z,68.03
2019-02-05T09:35:21.894Z,67.68
2019-02-05T09:37:50.384Z,66.89
2019-02-05T09:40:21.868Z,66.49
2019-02-05T09:42:50.351Z,68.16
2019-02-05T09:45:19.979Z,67.51
2019-02-05T09:47:48.582Z,66.98
2019-02-05T09:50:18.119Z,68.41
2019-02-05T09:52:46.807Z,68.06
2019-02-05T09:55:19.336Z,68.76
2019-02-05T09:57:47.829Z,69.27
2019-02-05T10:00:27.252Z,66.98
2019-02-05T10:02:56.729Z,66.11
2019-02-05T10:05:27.273Z,67.25
2019-02-05T10:07:55.877Z,66.50
2019-02-05T10:10:24.348Z,66.14
2019-02-05T10:12:53.041Z,66.59
2019-02-05T10:15:33.244Z,66.54
2019-02-05T10:18:02.194Z,65.86
2019-02-05T10:20:30.851Z,64.69
2019-02-05T10:23:01.656Z,64.89
2019-02-05T10:25:30.206Z,64.51
2019-02-05T10:27:58.640Z,64.12
2019-02-05T10:30:31.957Z,64.52
2019-02-05T10:33:02.344Z,64.53
2019-02-05T10:35:30.888Z,64.21
2019-02-05T10:37:59.960Z,64.12
2019-02-05T10:40:29.008Z,63.85
2019-02-05T10:42:57.485Z,65.33
2019-02-05T10:45:27.275Z,64.12
2019-02-05T10:47:55.841Z,63.39
2019-02-05T10:50:24.696Z,63.57
2019-02-05T10:52:53.262Z,63.64
2019-02-05T10:55:22.830Z,63.46
2019-02-05T10:57:53.296Z,63.67
2019-02-05T11:00:25.633Z,62.97
2019-02-05T11:02:54.515Z,62.37
2019-02-05T11:05:25.452Z,63.28
2019-02-05T11:07:53.920Z,61.31
2019-02-05T11:10:22.685Z,60.00
2019-02-05T11:12:51.271Z,60.56
2019-02-05T11:15:25.793Z,61.35
2019-02-05T11:17:54.274Z,59.85
2019-02-05T11:20:24.734Z,59.52
2019-02-05T11:22:53.263Z,60.60
2019-02-05T11:25:22.038Z,58.77
2019-02-05T11:27:50.634Z,57.25
2019-02-05T11:30:30.636Z,56.33
2019-02-05T11:32:59.232Z,55.82
2019-02-05T11:35:28.281Z,55.21
2019-02-05T11:37:56.930Z,54.96
2019-02-05T11:40:30.695Z,55.94
2019-02-05T11:42:59.168Z,56.21
2019-02-05T11:45:28.193Z,57.07
2019-02-05T11:47:57.544Z,57.17
2019-02-05T11:50:26.210Z,56.45
2019-02-05T11:52:54.967Z,55.58
2019-02-05T11:55:25.949Z,56.25
2019-02-05T11:57:54.369Z,56.24
2019-02-05T12:00:32.309Z,56.02
2019-02-05T12:02:55.217Z,56.15
2019-02-05T12:05:23.834Z,55.59
2019-02-05T12:07:52.517Z,55.00
2019-02-05T12:10:20.935Z,55.54
2019-02-05T12:12:50.238Z,55.51
2019-02-05T12:15:19.790Z,55.37
2019-02-05T12:17:48.184Z,55.42
2019-02-05T12:20:18.060Z,55.86
2019-02-05T12:22:47.534Z,54.86
2019-02-05T12:25:18.831Z,54.79
2019-02-05T12:27:47.538Z,54.70
2019-02-05T12:30:27.520Z,55.11
2019-02-05T12:32:56.474Z,54.71
2019-02-05T12:35:25.138Z,54.03
2019-02-05T12:37:53.674Z,54.72
2019-02-05T12:40:22.533Z,52.31
2019-02-05T12:42:51.105Z,49.01
2019-02-05T12:45:28.276Z,50.62
2019-02-05T12:47:56.759Z,51.65
2019-02-05T12:50:28.317Z,52.02
2019-02-05T12:52:56.811Z,52.57
2019-02-05T12:55:25.746Z,51.98
2019-02-05T12:57:54.637Z,52.05
2019-02-05T13:00:25.782Z,50.90
2019-02-05T13:02:54.754Z,50.88
2019-02-05T13:05:23.552Z,51.91
2019-02-05T13:07:52.000Z,52.11
2019-02-05T13:10:24.083Z,52.89
2019-02-05T13:12:52.831Z,53.72
2019-02-05T13:15:21.239Z,53.34
2019-02-05T13:17:49.822Z,53.11
2019-02-05T13:20:27.129Z,53.67
2019-02-05T13:22:56.114Z,54.44
2019-02-05T13:25:26.789Z,53.18
2019-02-05T13:27:55.163Z,52.65
2019-02-05T13:30:28.487Z,51.37
2019-02-05T13:32:57.071Z,49.44
2019-02-05T13:35:26.113Z,46.68
2019-02-05T13:37:54.674Z,48.99
2019-02-05T13:40:25.737Z,49.07
2019-02-05T13:42:54.886Z,49.41
2019-02-05T13:45:25.944Z,48.34
2019-02-05T13:47:54.529Z,47.61
2019-02-05T13:50:33.238Z,45.83
2019-02-05T13:52:55.486Z,46.83
2019-02-05T13:55:32.143Z,48.66
2019-02-05T13:58:00.731Z,48.49
2019-02-05T14:00:40.556Z,48.58
2019-02-05T14:03:10.502Z,50.51
2019-02-05T14:05:39.238Z,50.69
2019-02-05T14:08:08.230Z,51.14
2019-02-05T14:10:41.793Z,51.26
2019-02-05T14:13:10.289Z,50.89
2019-02-05T14:15:41.278Z,51.57
2019-02-05T14:18:10.554Z,51.04
2019-02-05T14:20:39.453Z,50.94
2019-02-05T14:23:08.189Z,51.78
2019-02-05T14:25:36.624Z,51.66
2019-02-05T14:28:05.200Z,51.11
2019-02-05T14:30:42.228Z,52.21
2019-02-05T14:33:10.838Z,51.88
2019-02-05T14:35:39.406Z,52.60
2019-02-05T14:38:08.290Z,53.92
2019-02-05T14:40:36.720Z,52.72
2019-02-05T14:43:05.850Z,52.89
2019-02-05T14:45:35.870Z,53.17
2019-02-05T14:48:04.935Z,53.65
2019-02-05T14:50:35.596Z,53.13
2019-02-05T14:53:05.072Z,53.99
2019-02-05T14:55:33.506Z,53.40
2019-02-05T14:58:02.211Z,53.60
2019-02-05T15:00:33.012Z,53.86
2019-02-05T15:03:02.623Z,54.34
2019-02-05T15:05:31.090Z,53.79
2019-02-05T15:07:59.740Z,54.67
2019-02-05T15:10:28.302Z,54.20
2019-02-05T15:12:56.787Z,53.22
2019-02-05T15:15:30.000Z,53.70
2019-02-05T15:17:59.067Z,54.20
2019-02-05T15:20:30.522Z,53.55
2019-02-05T15:22:59.274Z,53.61
2019-02-05T15:25:27.860Z,53.63
2019-02-05T15:27:56.476Z,53.92
2019-02-05T15:30:27.976Z,54.52
2019-02-05T15:33:06.570Z,55.29
2019-02-05T15:35:34.986Z,54.84
2019-02-05T15:38:03.587Z,55.69
2019-02-05T15:40:32.078Z,56.31
2019-02-05T15:43:00.486Z,55.30
2019-02-05T15:45:28.985Z,55.19
2019-02-05T15:47:57.509Z,55.19
2019-02-05T15:50:26.115Z,55.27
2019-02-05T15:52:54.564Z,55.19
2019-02-05T15:55:22.967Z,55.29
2019-02-05T15:57:51.435Z,55.57
2019-02-05T16:00:27.350Z,56.24
2019-02-05T16:02:55.899Z,56.33
2019-02-05T16:05:24.476Z,56.15
2019-02-05T16:07:52.996Z,56.08
2019-02-05T16:10:23.292Z,56.76
2019-02-05T16:12:51.804Z,56.44
2019-02-05T16:15:20.715Z,56.35
2019-02-05T16:17:49.300Z,56.16
2019-02-05T16:20:19.105Z,56.77
2019-02-05T16:22:49.105Z,56.56
2019-02-05T16:25:17.988Z,55.51
2019-02-05T16:27:46.574Z,55.97
2019-02-05T16:30:26.835Z,55.63
2019-02-05T16:32:55.358Z,57.17
2019-02-05T16:35:23.857Z,57.48
2019-02-05T16:37:53.555Z,57.67
2019-02-05T16:40:39.087Z,59.43
2019-02-05T16:43:07.579Z,59.30
2019-02-05T16:45:36.157Z,59.93
2019-02-05T16:48:05.042Z,60.08
2019-02-05T16:50:42.408Z,60.36
2019-02-05T16:53:11.490Z,59.71
2019-02-05T16:55:39.941Z,59.02
2019-02-05T16:58:08.461Z,59.49
2019-02-05T17:00:38.047Z,59.88
2019-02-05T17:03:07.308Z,60.07
2019-02-05T17:05:38.451Z,59.60
2019-02-05T17:08:07.584Z,59.59
2019-02-05T17:10:36.032Z,59.66
2019-02-05T17:13:05.117Z,59.97
2019-02-05T17:15:45.029Z,60.05
2019-02-05T17:18:23.197Z,59.38
2019-02-05T17:20:46.611Z,59.02
2019-02-05T17:23:15.290Z,59.13
2019-02-05T17:25:43.796Z,59.43
2019-02-05T17:28:13.017Z,58.96
2019-02-05T17:30:41.782Z,59.26
2019-02-05T17:33:10.343Z,58.90
2019-02-05T17:35:38.821Z,58.64
2019-02-05T17:38:08.763Z,58.69
2019-02-05T17:40:37.384Z,58.51
2019-02-05T17:43:06.870Z,58.65
2019-02-05T17:45:40.037Z,59.23
2019-02-05T17:48:11.741Z,58.68
2019-02-05T17:50:41.244Z,59.19
2019-02-05T17:53:09.883Z,59.00
2019-02-05T17:55:38.481Z,59.53
2019-02-05T17:58:07.059Z,58.93
2019-02-05T18:00:37.299Z,59.89
2019-02-05T18:03:06.550Z,60.38
2019-02-05T18:05:35.498Z,60.39
2019-02-05T18:08:04.385Z,60.53
2019-02-05T18:10:33.044Z,59.22
2019-02-05T18:13:01.702Z,59.69
2019-02-05T18:15:32.835Z,59.54
2019-02-05T18:18:01.564Z,59.77
2019-02-05T18:20:30.213Z,59.49
2019-02-05T18:22:58.803Z,60.24
2019-02-05T18:25:27.357Z,60.88
2019-02-05T18:27:55.995Z,61.18
2019-02-05T18:30:38.569Z,60.68
2019-02-05T18:33:07.667Z,60.61
2019-02-05T18:35:36.221Z,61.15
2019-02-05T18:38:10.756Z,61.40
2019-02-05T18:40:39.525Z,60.94
2019-02-05T18:43:08.345Z,60.30
2019-02-05T18:45:37.087Z,60.23
2019-02-05T18:48:06.407Z,61.13
2019-02-05T18:50:36.614Z,61.75
2019-02-05T18:53:05.303Z,62.04
2019-02-05T18:55:54.677Z,63.19
2019-02-05T18:58:26.647Z,64.11
2019-02-05T19:00:54.990Z,62.68
2019-02-05T19:03:24.808Z,63.09
2019-02-05T19:05:55.639Z,63.21
2019-02-05T19:08:24.297Z,62.07
2019-02-05T19:10:53.596Z,62.62
2019-02-05T19:13:22.386Z,63.15
2019-02-05T19:15:51.048Z,63.82
2019-02-05T19:18:22.102Z,63.71
2019-02-05T19:20:50.756Z,64.10
2019-02-05T19:23:19.395Z,64.40
2019-02-05T19:25:58.976Z,63.87
2019-02-05T19:28:32.367Z,64.67
2019-02-05T19:31:04.056Z,63.88
2019-02-05T19:33:34.959Z,64.28
2019-02-05T19:36:03.874Z,64.16
2019-02-05T19:38:32.562Z,64.74
2019-02-05T19:41:01.606Z,64.95
2019-02-05T19:43:30.261Z,63.98
2019-02-05T19:46:00.510Z,63.67
2019-02-05T19:48:49.076Z,63.96
2019-02-05T19:51:17.869Z,64.70
2019-02-05T19:53:58.334Z,64.53
2019-02-05T19:56:37.674Z,65.34
2019-02-05T19:58:57.660Z,64.67
2019-02-05T20:01:29.305Z,65.45
2019-02-05T20:03:58.037Z,65.80
2019-02-05T20:06:29.822Z,66.43
2019-02-05T20:09:01.803Z,66.67
2019-02-05T20:11:31.932Z,66.17
2019-02-05T20:14:00.594Z,65.97
2019-02-05T20:16:29.285Z,65.72
2019-02-05T20:18:58.062Z,66.40
2019-02-05T20:21:26.743Z,67.17
2019-02-05T20:23:58.548Z,67.89
2019-02-05T20:26:30.677Z,68.50
2019-02-05T20:28:59.485Z,67.92
2019-02-05T20:31:30.288Z,68.07
2019-02-05T20:34:00.725Z,69.26
2019-02-05T20:36:29.347Z,69.13
2019-02-05T20:39:01.290Z,69.41
2019-02-05T20:41:30.236Z,69.98
2019-02-05T20:44:21.147Z,71.27
2019-02-05T20:46:49.869Z,72.19
2019-02-05T20:49:23.123Z,71.46
2019-02-05T20:51:51.909Z,72.00
2019-02-05T20:54:20.700Z,72.35
2019-02-05T20:56:49.377Z,71.86
2019-02-05T20:59:18.147Z,69.22
2019-02-05T21:01:46.823Z,69.10
2019-02-05T21:04:15.536Z,68.95
2019-02-05T21:06:44.086Z,67.69
2019-02-05T21:09:15.198Z,67.83
2019-02-05T21:11:43.790Z,67.14
2019-02-05T21:14:12.340Z,67.46
2019-02-05T21:16:41.112Z,66.63
2019-02-05T21:19:11.304Z,66.40
2019-02-05T21:21:39.951Z,66.54
2019-02-05T21:24:08.912Z,67.72
2019-02-05T21:26:37.592Z,68.75
2019-02-05T21:29:06.229Z,68.73
2019-02-05T21:31:37.723Z,68.62
2019-02-05T21:34:15.248Z,69.28
2019-02-05T21:36:36.945Z,70.15
2019-02-05T21:39:08.721Z,71.66
2019-02-05T21:41:37.283Z,72.07
